createdAt,value
2022-08-07T00:02:36.810Z,3.10
2022-08-07T00:07:23.414Z,3.00
2022-08-07T00:12:30.413Z,3.90
2022-08-07T00:17:35.896Z,3.10
2022-08-07T00:22:38.841Z,3.00
2022-08-07T00:27:52.425Z,2.70
2022-08-07T00:32:58.347Z,3.00
2022-08-07T00:38:01.586Z,3.10
2022-08-07T00:43:09.906Z,2.70
2022-08-07T00:48:13.578Z,2.90
2022-08-07T00:53:16.784Z,2.90
2022-08-07T00:58:21.406Z,2.30
2022-08-07T01:03:56.617Z,2.70
2022-08-07T01:08:53.661Z,2.50
2022-08-07T01:13:58.630Z,2.40
2022-08-07T01:19:01.421Z,2.50
2022-08-07T01:24:07.996Z,2.40
2022-08-07T01:29:14.168Z,2.50
2022-08-07T01:34:20.695Z,2.60
2022-08-07T01:39:41.154Z,2.60
2022-08-07T01:44:49.618Z,2.40
2022-08-07T01:49:54.702Z,2.30
2022-08-07T01:55:00.929Z,2.40
2022-08-07T02:00:12.772Z,2.50
2022-08-07T02:05:43.344Z,2.30
2022-08-07T02:10:58.109Z,2.40
2022-08-07T02:16:03.565Z,2.60
2022-08-07T02:21:16.039Z,2.40
2022-08-07T02:26:32.854Z,2.50
2022-08-07T02:31:38.851Z,2.70
2022-08-07T02:36:45.326Z,3.10
2022-08-07T02:41:50.696Z,2.50
2022-08-07T02:46:59.347Z,3.00
2022-08-07T02:52:06.837Z,2.60
2022-08-07T02:57:14.279Z,2.90
2022-08-07T03:02:18.219Z,2.80
2022-08-07T03:07:25.272Z,3.00
2022-08-07T03:12:46.984Z,3.10
2022-08-07T03:17:53.508Z,2.90
2022-08-07T03:22:58.722Z,2.80
2022-08-07T03:28:09.481Z,2.80
2022-08-07T03:33:32.236Z,2.80
2022-08-07T03:38:45.256Z,2.70
2022-08-07T03:49:03.320Z,3.10
2022-08-07T03:54:35.590Z,2.80
2022-08-07T03:59:29.650Z,3.00
2022-08-07T04:04:32.897Z,3.10
2022-08-07T04:09:45.103Z,2.70
2022-08-07T04:14:53.913Z,3.50
2022-08-07T04:19:59.066Z,3.40
2022-08-07T04:25:02.607Z,3.10
2022-08-07T04:30:11.861Z,3.80
2022-08-07T04:35:24.876Z,3.20
2022-08-07T04:40:29.939Z,3.50
2022-08-07T04:46:02.261Z,3.80
2022-08-07T04:51:12.810Z,3.30
2022-08-07T04:58:13.817Z,3.50
2022-08-07T05:02:01.255Z,3.40
2022-08-07T05:07:20.574Z,4.10
2022-08-07T05:12:53.050Z,3.80
2022-08-07T05:18:01.771Z,3.70
2022-08-07T05:23:30.146Z,3.40
2022-08-07T05:28:35.847Z,3.70
2022-08-07T05:33:40.410Z,3.50
2022-08-07T05:38:59.412Z,3.90
2022-08-07T05:44:12.225Z,4.20
2022-08-07T05:49:16.243Z,4.00
2022-08-07T05:54:30.552Z,4.00
2022-08-07T05:59:47.334Z,3.10
2022-08-07T06:05:11.016Z,3.30
2022-08-07T06:10:18.943Z,3.50
2022-08-07T06:15:39.312Z,3.10
2022-08-07T06:20:50.436Z,3.40
2022-08-07T06:26:13.634Z,3.70
2022-08-07T06:31:18.218Z,2.90
2022-08-07T06:36:27.480Z,2.70
2022-08-07T06:42:10.384Z,2.90
2022-08-07T06:47:15.482Z,2.10
2022-08-07T06:52:31.557Z,2.20
2022-08-07T06:57:47.678Z,1.90
2022-08-07T07:03:00.924Z,2.10
2022-08-07T07:08:07.323Z,1.80
2022-08-07T07:13:58.091Z,2.10
2022-08-07T07:19:40.978Z,2.00
2022-08-07T07:24:31.974Z,1.60
2022-08-07T07:29:56.428Z,1.70
2022-08-07T07:35:04.035Z,1.60
2022-08-07T07:40:15.317Z,1.90
2022-08-07T07:46:33.383Z,2.10
2022-08-07T07:50:47.433Z,2.00
2022-08-07T07:56:00.961Z,1.40
2022-08-07T08:02:03.603Z,1.60
2022-08-07T08:06:31.262Z,1.50
2022-08-07T08:11:59.196Z,1.60
2022-08-07T08:17:56.738Z,1.60
2022-08-07T08:22:55.845Z,1.40
2022-08-07T08:28:03.862Z,1.60
2022-08-07T08:33:15.050Z,1.60
2022-08-07T08:38:25.788Z,1.60
2022-08-07T08:43:55.861Z,1.50
2022-08-07T08:49:17.226Z,1.40
2022-08-07T08:54:29.142Z,1.60
2022-08-07T08:59:51.229Z,1.80
2022-08-07T09:05:04.934Z,1.50
2022-08-07T09:10:14.722Z,1.40
2022-08-07T09:16:22.441Z,1.50
2022-08-07T09:21:34.152Z,1.40
2022-08-07T09:27:16.686Z,1.30
2022-08-07T09:32:35.410Z,1.50
2022-08-07T09:38:04.472Z,1.30
2022-08-07T09:44:03.463Z,1.40
2022-08-07T09:50:03.007Z,1.50
2022-08-07T10:00:05.521Z,1.00
2022-08-07T10:05:17.059Z,1.30
2022-08-07T10:11:00.331Z,1.40
2022-08-07T10:16:21.340Z,1.20
2022-08-07T10:22:02.788Z,1.00
2022-08-07T10:27:17.746Z,0.90
2022-08-07T10:32:53.337Z,1.30
2022-08-07T10:38:42.284Z,0.90
2022-08-07T10:44:28.747Z,2.20
2022-08-07T10:49:51.269Z,1.40
2022-08-07T10:55:26.987Z,1.20
2022-08-07T11:00:43.019Z,1.00
2022-08-07T11:05:58.798Z,1.10
2022-08-07T11:11:11.702Z,1.10
2022-08-07T11:16:29.975Z,1.20
2022-08-07T11:22:06.352Z,0.90
2022-08-07T11:28:02.665Z,1.10
2022-08-07T11:33:53.925Z,0.90
2022-08-07T11:39:58.934Z,0.90
2022-08-07T11:45:09.391Z,1.00
2022-08-07T11:50:57.905Z,1.10
2022-08-07T11:56:28.117Z,1.10
2022-08-07T12:01:59.795Z,1.10
2022-08-07T12:07:27.692Z,1.60
2022-08-07T12:12:47.989Z,1.40
2022-08-07T12:18:08.138Z,0.90
2022-08-07T12:24:07.615Z,1.50
2022-08-07T12:29:20.267Z,1.00
2022-08-07T12:34:29.635Z,1.30
2022-08-07T12:39:42.106Z,1.30
2022-08-07T12:44:48.918Z,1.60
2022-08-07T12:50:04.940Z,1.10
2022-08-07T12:56:02.096Z,1.10
2022-08-07T13:01:17.226Z,1.00
2022-08-07T13:12:15.150Z,1.30
2022-08-07T13:17:40.600Z,1.10
2022-08-07T13:22:56.512Z,1.00
2022-08-07T13:28:12.802Z,1.20
2022-08-07T13:34:32.872Z,1.30
2022-08-07T13:39:28.193Z,1.20
2022-08-07T13:44:43.459Z,1.40
2022-08-07T13:50:33.595Z,1.00
2022-08-07T13:55:26.300Z,1.20
2022-08-07T14:00:39.693Z,1.30
2022-08-07T14:05:58.593Z,1.00
2022-08-07T14:11:14.907Z,1.00
2022-08-07T14:16:31.139Z,1.10
2022-08-07T14:22:04.095Z,1.40
2022-08-07T14:28:09.198Z,1.00
2022-08-07T14:32:41.220Z,1.30
2022-08-07T14:38:05.785Z,1.10
2022-08-07T14:43:55.169Z,1.00
2022-08-07T14:48:37.375Z,1.30
2022-08-07T14:59:13.934Z,1.50
2022-08-07T15:04:40.553Z,1.10
2022-08-07T15:10:02.018Z,0.90
2022-08-07T15:15:17.407Z,1.40
2022-08-07T15:20:54.922Z,1.40
2022-08-07T15:26:02.109Z,1.30
2022-08-07T15:31:09.777Z,1.30
2022-08-07T15:36:13.966Z,1.30
2022-08-07T15:52:36.736Z,1.80
2022-08-07T15:57:48.836Z,1.60
2022-08-07T16:02:57.510Z,1.10
2022-08-07T16:08:31.786Z,1.40
2022-08-07T16:14:17.257Z,1.30
2022-08-07T16:20:07.572Z,1.60
2022-08-07T16:25:55.450Z,1.50
2022-08-07T16:31:51.378Z,1.30
2022-08-07T16:38:03.426Z,1.70
2022-08-07T16:43:01.495Z,1.70
2022-08-07T16:50:20.255Z,1.60
2022-08-07T16:54:55.127Z,1.70
2022-08-07T17:00:16.094Z,1.80
2022-08-07T17:06:19.486Z,1.30
2022-08-07T17:12:04.680Z,1.60
2022-08-07T17:17:09.825Z,1.60
2022-08-07T17:22:30.304Z,1.60
2022-08-07T17:28:02.338Z,1.70
2022-08-07T17:34:09.815Z,1.40
2022-08-07T17:39:02.909Z,1.70
2022-08-07T17:44:34.047Z,1.60
2022-08-07T17:49:56.174Z,2.20
2022-08-07T17:55:04.438Z,1.90
2022-08-07T18:00:12.582Z,2.20
2022-08-07T18:06:01.931Z,1.60
2022-08-07T18:11:53.659Z,1.30
2022-08-07T18:16:57.434Z,1.60
2022-08-07T18:22:30.893Z,1.90
2022-08-07T18:27:55.583Z,1.80
2022-08-07T18:33:27.011Z,1.90
2022-08-07T18:38:57.382Z,1.80
2022-08-07T18:44:24.117Z,1.60
2022-08-07T18:50:35.000Z,1.90
2022-08-07T18:55:56.161Z,2.10
2022-08-07T19:02:17.373Z,1.50
2022-08-07T19:06:49.681Z,1.90
2022-08-07T19:12:05.475Z,1.70
2022-08-07T19:18:01.512Z,2.00
2022-08-07T19:23:03.182Z,2.00
2022-08-07T19:28:57.315Z,1.80
2022-08-07T19:33:56.507Z,1.80
2022-08-07T19:39:09.210Z,2.30
2022-08-07T19:44:21.685Z,2.10
2022-08-07T19:49:58.293Z,1.90
2022-08-07T19:54:56.401Z,1.70
2022-08-07T20:00:08.747Z,2.10
2022-08-07T20:05:19.810Z,1.90
2022-08-07T20:10:37.683Z,1.90
2022-08-07T20:15:57.759Z,1.90
2022-08-07T20:21:14.511Z,2.20
2022-08-07T20:26:29.852Z,2.10
2022-08-07T20:31:37.202Z,2.10
2022-08-07T20:36:44.090Z,2.00
2022-08-07T20:41:55.136Z,1.60
2022-08-07T20:47:05.768Z,1.70
2022-08-07T20:52:29.884Z,1.60
2022-08-07T20:58:04.046Z,2.30
2022-08-07T21:08:37.001Z,1.90
2022-08-07T21:14:20.243Z,2.10
2022-08-07T21:19:14.073Z,1.90
2022-08-07T21:29:39.584Z,2.00
2022-08-07T21:35:11.505Z,1.60
2022-08-07T21:40:26.094Z,1.90
2022-08-07T21:46:08.751Z,1.80
2022-08-07T21:51:32.269Z,1.80
2022-08-07T21:57:05.479Z,1.80
2022-08-07T22:02:19.257Z,1.80
2022-08-07T22:07:42.765Z,1.90
2022-08-07T22:13:01.291Z,1.80
2022-08-07T22:18:07.409Z,2.00
2022-08-07T22:23:25.102Z,1.80
2022-08-07T22:28:59.390Z,2.40
2022-08-07T22:34:12.983Z,1.80
2022-08-07T22:39:53.149Z,2.10
2022-08-07T22:45:02.027Z,1.90
2022-08-07T22:50:20.626Z,1.90
2022-08-07T22:56:13.098Z,1.70
2022-08-07T23:01:50.536Z,1.90
2022-08-07T23:07:39.761Z,1.90
2022-08-07T23:13:04.958Z,1.80
2022-08-07T23:18:32.129Z,2.10
2022-08-07T23:24:05.607Z,1.70
2022-08-07T23:29:43.782Z,2.00
2022-08-07T23:35:01.435Z,1.80
2022-08-07T23:40:26.344Z,2.10
2022-08-07T23:46:02.940Z,2.30
2022-08-07T23:52:59.667Z,1.90
2022-08-07T23:56:58.231Z,2.20
